createdAt,value
2019-03-15T00:01:05.266Z,98882.28
2019-03-15T00:03:35.738Z,98886.74
2019-03-15T00:06:07.244Z,98898.52
2019-03-15T00:08:38.237Z,98897.67
2019-03-15T00:11:08.917Z,98898.27
2019-03-15T00:13:39.703Z,98901.66
2019-03-15T00:16:12.841Z,98907.67
2019-03-15T00:18:43.486Z,98913.57
2019-03-15T00:21:13.669Z,98915.00
2019-03-15T00:23:44.591Z,98921.49
2019-03-15T00:26:15.022Z,98933.77
2019-03-15T00:28:45.275Z,98938.12
2019-03-15T00:31:15.509Z,98934.75
2019-03-15T00:33:46.047Z,98945.34
2019-03-15T00:36:16.377Z,98956.16
2019-03-15T00:38:46.902Z,98956.65
2019-03-15T00:41:17.390Z,98955.94
2019-03-15T00:43:49.549Z,98968.56
2019-03-15T00:46:20.209Z,98962.30
2019-03-15T00:48:50.533Z,98974.34
2019-03-15T00:51:21.313Z,98974.58
2019-03-15T00:53:54.076Z,98979.03
2019-03-15T00:56:23.422Z,98976.38
2019-03-15T00:58:54.113Z,98982.28
2019-03-15T01:01:24.553Z,98987.58
2019-03-15T01:03:54.770Z,99009.96
2019-03-15T01:06:25.198Z,99002.98
2019-03-15T01:08:55.807Z,99007.31
2019-03-15T01:11:26.135Z,99010.69
2019-03-15T01:13:56.351Z,99023.09
2019-03-15T01:16:26.868Z,99022.34
2019-03-15T01:18:59.463Z,99019.58
2019-03-15T01:21:30.118Z,99036.42
2019-03-15T01:24:00.417Z,99044.83
2019-03-15T01:26:30.695Z,99048.95
2019-03-15T01:29:01.133Z,99047.73
2019-03-15T01:31:31.643Z,99057.61
2019-03-15T01:34:02.105Z,99055.44
2019-03-15T01:36:32.348Z,99068.46
2019-03-15T01:39:04.009Z,99072.07
2019-03-15T01:41:34.468Z,99072.79
2019-03-15T01:44:04.965Z,99085.67
2019-03-15T01:46:35.174Z,99093.73
2019-03-15T01:49:05.446Z,99101.43
2019-03-15T01:51:35.975Z,99104.83
2019-03-15T01:54:06.171Z,99107.08
2019-03-15T01:56:36.772Z,99111.20
2019-03-15T01:59:06.995Z,99124.20
2019-03-15T02:01:37.248Z,99130.25
2019-03-15T02:04:07.587Z,99132.55
2019-03-15T02:06:37.884Z,99143.02
2019-03-15T02:09:09.467Z,99138.34
2019-03-15T02:11:39.825Z,99147.26
2019-03-15T02:14:10.292Z,99155.92
2019-03-15T02:16:40.508Z,99161.58
2019-03-15T02:19:11.261Z,99171.58
2019-03-15T02:21:41.548Z,99156.16
2019-03-15T02:24:12.016Z,99163.15
2019-03-15T02:26:42.673Z,99166.39
2019-03-15T02:29:12.857Z,99165.22
2019-03-15T02:31:44.068Z,99174.85
2019-03-15T02:34:14.356Z,99175.94
2019-03-15T02:36:44.555Z,99180.52
2019-03-15T02:39:14.737Z,99175.94
2019-03-15T02:41:46.249Z,99179.91
2019-03-15T02:44:16.531Z,99184.99
2019-03-15T02:46:46.974Z,99189.81
2019-03-15T02:49:17.302Z,99190.66
2019-03-15T02:51:47.860Z,99195.95
2019-03-15T02:54:18.425Z,99190.05
2019-03-15T02:56:48.682Z,99188.24
2019-03-15T02:59:21.368Z,99192.22
2019-03-15T03:01:51.511Z,99195.71
2019-03-15T03:04:21.696Z,99196.55
2019-03-15T03:06:52.240Z,99200.16
2019-03-15T03:09:22.461Z,99211.61
2019-03-15T03:11:52.722Z,99201.85
2019-03-15T03:14:22.882Z,99212.20
2019-03-15T03:16:57.016Z,99224.61
2019-03-15T03:19:28.176Z,99219.10
2019-03-15T03:21:58.511Z,99227.53
2019-03-15T03:24:28.720Z,99205.48
2019-03-15T03:26:59.007Z,99225.00
2019-03-15T03:29:29.509Z,99226.45
2019-03-15T03:31:59.668Z,99221.15
2019-03-15T03:34:29.944Z,99243.55
2019-03-15T03:37:00.433Z,99243.80
2019-03-15T03:39:30.756Z,99250.53
2019-03-15T03:42:01.000Z,99242.86
2019-03-15T03:44:31.474Z,99238.76
2019-03-15T03:47:04.106Z,99240.69
2019-03-15T03:49:34.543Z,99240.33
2019-03-15T03:52:04.961Z,99234.78
2019-03-15T03:54:36.694Z,99240.56
2019-03-15T03:57:07.165Z,99246.95
2019-03-15T03:59:37.363Z,99257.19
2019-03-15T04:02:08.171Z,99259.96
2019-03-15T04:04:38.495Z,99270.33
2019-03-15T04:07:08.866Z,99273.82
2019-03-15T04:09:39.346Z,99268.64
2019-03-15T04:12:09.638Z,99273.82
2019-03-15T04:14:39.861Z,99283.67
2019-03-15T04:17:10.035Z,99287.64
2019-03-15T04:19:40.269Z,99276.80
2019-03-15T04:22:10.893Z,99275.95
2019-03-15T04:24:41.539Z,99276.20
2019-03-15T04:27:11.671Z,99277.41
2019-03-15T04:29:41.834Z,99276.89
2019-03-15T04:32:12.511Z,99276.02
2019-03-15T04:34:42.810Z,99287.81
2019-03-15T04:37:13.324Z,99295.36
2019-03-15T04:39:43.484Z,99285.48
2019-03-15T04:42:13.992Z,99282.10
2019-03-15T04:44:44.265Z,99290.17
2019-03-15T04:47:14.536Z,99306.18
2019-03-15T04:49:45.840Z,99303.53
2019-03-15T04:52:19.202Z,99307.22
2019-03-15T04:54:50.940Z,99310.92
2019-03-15T04:57:21.315Z,99304.90
2019-03-15T04:59:51.934Z,99309.59
2019-03-15T05:02:22.732Z,99310.23
2019-03-15T05:04:52.961Z,99304.73
2019-03-15T05:07:23.338Z,99305.58
2019-03-15T05:09:54.985Z,99307.39
2019-03-15T05:12:25.773Z,99307.19
2019-03-15T05:14:56.081Z,99304.67
2019-03-15T05:17:26.680Z,99301.78
2019-03-15T05:19:56.922Z,99300.70
2019-03-15T05:22:27.510Z,99301.94
2019-03-15T05:24:58.094Z,99297.84
2019-03-15T05:27:28.655Z,99296.40
2019-03-15T05:29:59.013Z,99301.82
2019-03-15T05:32:31.030Z,99297.84
2019-03-15T05:35:01.828Z,99298.69
2019-03-15T05:37:32.689Z,99294.14
2019-03-15T05:40:03.326Z,99296.04
2019-03-15T05:42:34.686Z,99293.52
2019-03-15T05:45:05.322Z,99293.15
2019-03-15T05:47:35.634Z,99303.98
2019-03-15T05:50:07.309Z,99303.30
2019-03-15T05:52:37.579Z,99297.16
2019-03-15T05:55:09.288Z,99298.64
2019-03-15T05:57:39.527Z,99297.44
2019-03-15T06:00:11.393Z,99300.12
2019-03-15T06:02:41.674Z,99304.21
2019-03-15T06:05:12.135Z,99292.67
2019-03-15T06:07:42.322Z,99293.27
2019-03-15T06:10:13.386Z,99298.20
2019-03-15T06:12:43.609Z,99292.54
2019-03-15T06:15:14.649Z,99279.16
2019-03-15T06:17:45.881Z,99288.80
2019-03-15T06:20:16.058Z,99293.53
2019-03-15T06:22:46.367Z,99287.27
2019-03-15T06:25:16.880Z,99288.70
2019-03-15T06:27:47.721Z,99289.78
2019-03-15T06:30:17.943Z,99298.98
2019-03-15T06:32:48.796Z,99295.83
2019-03-15T06:35:19.092Z,99300.91
2019-03-15T06:37:49.518Z,99296.09
2019-03-15T06:40:19.772Z,99300.09
2019-03-15T06:42:49.962Z,99296.83
2019-03-15T06:45:20.183Z,99288.73
2019-03-15T06:47:51.944Z,99293.44
2019-03-15T06:50:22.089Z,99291.75
2019-03-15T06:52:52.318Z,99285.97
2019-03-15T06:55:25.515Z,99289.34
2019-03-15T06:57:56.347Z,99281.00
2019-03-15T07:00:27.047Z,99272.55
2019-03-15T07:02:57.334Z,99278.22
2019-03-15T07:05:27.576Z,99282.34
2019-03-15T07:07:58.025Z,99280.50
2019-03-15T07:10:28.596Z,99279.31
2019-03-15T07:12:58.841Z,99275.79
2019-03-15T07:15:31.974Z,99281.09
2019-03-15T07:18:02.483Z,99285.80
2019-03-15T07:20:32.731Z,99281.72
2019-03-15T07:23:02.933Z,99273.37
2019-03-15T07:25:33.521Z,99270.72
2019-03-15T07:28:03.727Z,99266.11
2019-03-15T07:30:33.901Z,99269.13
2019-03-15T07:33:04.552Z,99263.20
2019-03-15T07:35:35.422Z,99263.59
2019-03-15T07:38:05.616Z,99255.84
2019-03-15T07:40:35.994Z,99252.09
2019-03-15T07:43:06.190Z,99247.49
2019-03-15T07:45:36.457Z,99251.34
2019-03-15T07:48:06.745Z,99246.97
2019-03-15T07:50:37.223Z,99244.04
2019-03-15T07:53:08.087Z,99241.61
2019-03-15T07:55:38.423Z,99245.23
2019-03-15T07:58:08.915Z,99241.83
2019-03-15T08:00:39.448Z,99236.77
2019-03-15T08:03:09.670Z,99235.31
2019-03-15T08:05:39.929Z,99234.69
2019-03-15T08:08:10.154Z,99222.60
2019-03-15T08:10:40.515Z,99225.11
2019-03-15T08:13:11.678Z,99224.98
2019-03-15T08:15:42.093Z,99217.97
2019-03-15T08:18:12.645Z,99223.00
2019-03-15T08:20:43.044Z,99222.69
2019-03-15T08:23:13.562Z,99229.16
2019-03-15T08:25:43.783Z,99226.80
2019-03-15T08:28:13.974Z,99234.16
2019-03-15T08:30:44.208Z,99218.48
2019-03-15T08:33:14.937Z,99224.16
2019-03-15T08:35:45.118Z,99224.86
2019-03-15T08:38:15.329Z,99224.52
2019-03-15T08:40:45.661Z,99234.04
2019-03-15T08:43:16.002Z,99229.19
2019-03-15T08:45:46.621Z,99223.87
2019-03-15T08:48:17.594Z,99221.27
2019-03-15T08:50:47.760Z,99221.92
2019-03-15T08:53:25.901Z,99212.25
2019-03-15T08:56:00.446Z,99214.64
2019-03-15T08:58:30.893Z,99215.97
2019-03-15T09:01:01.381Z,99205.25
2019-03-15T09:03:34.296Z,99206.58
2019-03-15T09:06:06.293Z,99203.65
2019-03-15T09:08:37.540Z,99203.77
2019-03-15T09:11:08.052Z,99189.95
2019-03-15T09:13:38.377Z,99182.45
2019-03-15T09:16:10.333Z,99175.34
2019-03-15T09:18:40.866Z,99177.80
2019-03-15T09:21:11.399Z,99183.41
2019-03-15T09:23:41.873Z,99167.92
2019-03-15T09:26:13.095Z,99160.84
2019-03-15T09:28:43.383Z,99152.88
2019-03-15T09:31:14.233Z,99155.80
2019-03-15T09:33:44.778Z,99150.19
2019-03-15T09:36:15.252Z,99140.37
2019-03-15T09:38:46.056Z,99130.81
2019-03-15T09:41:30.522Z,99114.92
2019-03-15T09:43:48.632Z,99113.86
2019-03-15T09:46:19.522Z,99097.59
2019-03-15T09:48:49.734Z,99098.66
2019-03-15T09:51:20.002Z,99082.88
2019-03-15T09:53:50.650Z,99079.44
2019-03-15T09:56:21.288Z,99069.97
2019-03-15T09:58:51.799Z,99068.49
2019-03-15T10:01:34.739Z,99062.41
2019-03-15T10:03:54.679Z,99058.34
2019-03-15T10:06:25.233Z,99051.33
2019-03-15T10:08:55.470Z,99056.66
2019-03-15T10:11:25.656Z,99035.22
2019-03-15T10:13:56.929Z,99034.38
2019-03-15T10:16:27.396Z,99034.17
2019-03-15T10:18:58.328Z,99016.17
2019-03-15T10:21:28.730Z,99003.27
2019-03-15T10:23:59.611Z,98996.98
2019-03-15T10:26:32.187Z,99007.20
2019-03-15T10:29:14.531Z,98997.04
2019-03-15T10:31:39.659Z,98984.78
2019-03-15T10:34:10.140Z,98980.92
2019-03-15T10:36:40.735Z,98976.78
2019-03-15T10:39:10.892Z,98964.22
2019-03-15T10:41:41.781Z,98962.01
2019-03-15T10:44:12.575Z,98942.61
2019-03-15T10:46:42.774Z,98933.24
2019-03-15T10:49:12.967Z,98921.47
2019-03-15T10:51:43.432Z,98915.30
2019-03-15T10:54:13.698Z,98911.87
2019-03-15T10:56:44.225Z,98909.71
2019-03-15T10:59:14.386Z,98895.80
2019-03-15T11:01:45.284Z,98884.04
2019-03-15T11:04:15.827Z,98879.26
2019-03-15T11:06:45.984Z,98854.69
2019-03-15T11:09:16.670Z,98847.63
2019-03-15T11:11:47.294Z,98846.48
2019-03-15T11:14:18.074Z,98839.96
2019-03-15T11:16:48.500Z,98822.88
2019-03-15T11:19:18.701Z,98815.47
2019-03-15T11:21:48.862Z,98795.91
2019-03-15T11:24:20.989Z,98794.97
2019-03-15T11:26:51.619Z,98781.83
2019-03-15T11:29:22.413Z,98775.82
2019-03-15T11:31:53.114Z,98753.59
2019-03-15T11:34:24.077Z,98740.30
2019-03-15T11:36:58.586Z,98732.09
2019-03-15T11:39:31.231Z,98724.95
2019-03-15T11:42:01.531Z,98716.27
2019-03-15T11:44:32.541Z,98703.46
2019-03-15T11:47:03.000Z,98705.56
2019-03-15T11:49:34.504Z,98683.98
2019-03-15T11:52:08.385Z,98671.83
2019-03-15T11:54:38.973Z,98676.34
2019-03-15T11:57:09.154Z,98654.77
2019-03-15T11:59:39.379Z,98652.25
2019-03-15T12:02:11.028Z,98642.48
2019-03-15T12:04:41.744Z,98638.14
2019-03-15T12:07:11.891Z,98656.72
2019-03-15T12:09:42.171Z,98645.48
2019-03-15T12:12:12.396Z,98618.94
2019-03-15T12:14:43.071Z,98602.67
2019-03-15T12:17:13.389Z,98618.59
2019-03-15T12:19:43.628Z,98598.89
2019-03-15T12:22:14.054Z,98613.48
2019-03-15T12:24:44.480Z,98592.11
2019-03-15T12:27:14.979Z,98577.60
2019-03-15T12:29:45.199Z,98575.98
2019-03-15T12:32:15.357Z,98559.63
2019-03-15T12:34:47.277Z,98554.20
2019-03-15T12:37:17.839Z,98533.02
2019-03-15T12:39:48.381Z,98534.00
2019-03-15T12:42:19.566Z,98522.06
2019-03-15T12:44:49.742Z,98531.35
2019-03-15T12:47:19.889Z,98521.51
2019-03-15T12:49:51.414Z,98531.54
2019-03-15T12:52:21.764Z,98520.22
2019-03-15T12:54:52.868Z,98524.81
2019-03-15T12:57:23.082Z,98516.90
2019-03-15T12:59:53.295Z,98508.14
2019-03-15T13:02:23.940Z,98496.16
2019-03-15T13:04:54.448Z,98486.09
2019-03-15T13:07:24.856Z,98496.96
2019-03-15T13:09:55.174Z,98476.13
2019-03-15T13:12:25.465Z,98493.09
2019-03-15T13:14:55.582Z,98477.83
2019-03-15T13:17:26.053Z,98493.20
2019-03-15T13:19:58.045Z,98496.99
2019-03-15T13:22:28.275Z,98499.25
2019-03-15T13:24:58.802Z,98493.22
2019-03-15T13:27:28.960Z,98501.77
2019-03-15T13:29:59.329Z,98491.86
2019-03-15T13:32:29.596Z,98493.97
2019-03-15T13:35:00.384Z,98495.88
2019-03-15T13:37:30.691Z,98510.38
2019-03-15T13:40:00.955Z,98506.45
2019-03-15T13:42:31.189Z,98526.26
2019-03-15T13:45:02.089Z,98509.30
2019-03-15T13:47:32.984Z,98500.81
2019-03-15T13:50:03.586Z,98526.78
2019-03-15T13:52:33.751Z,98524.77
2019-03-15T13:55:04.600Z,98536.75
2019-03-15T13:57:34.768Z,98528.42
2019-03-15T14:00:05.298Z,98526.75
2019-03-15T14:02:35.934Z,98534.83
2019-03-15T14:05:06.216Z,98540.43
2019-03-15T14:07:36.755Z,98531.61
2019-03-15T14:10:07.821Z,98523.27
2019-03-15T14:12:38.262Z,98539.94
2019-03-15T14:15:10.208Z,98559.18
2019-03-15T14:17:40.879Z,98529.23
2019-03-15T14:20:11.615Z,98562.45
2019-03-15T14:22:42.224Z,98553.45
2019-03-15T14:25:12.737Z,98566.60
2019-03-15T14:27:43.397Z,98549.09
2019-03-15T14:30:13.964Z,98579.56
2019-03-15T14:32:44.367Z,98560.78
2019-03-15T14:35:15.500Z,98582.41
2019-03-15T14:37:45.824Z,98587.58
2019-03-15T14:40:16.443Z,98586.74
2019-03-15T14:42:47.409Z,98587.27
2019-03-15T14:45:17.677Z,98581.30
2019-03-15T14:47:48.529Z,98574.88
2019-03-15T14:50:19.200Z,98588.52
2019-03-15T14:52:49.813Z,98598.84
2019-03-15T14:55:20.109Z,98602.99
2019-03-15T14:57:52.945Z,98601.85
2019-03-15T15:00:22.469Z,98622.49
2019-03-15T15:02:53.746Z,98568.41
2019-03-15T15:05:23.984Z,98598.81
2019-03-15T15:07:54.226Z,98611.44
2019-03-15T15:10:25.896Z,98587.42
2019-03-15T15:12:56.036Z,98599.02
2019-03-15T15:15:26.376Z,98587.54
2019-03-15T15:17:57.843Z,98598.30
2019-03-15T15:20:28.243Z,98606.78
2019-03-15T15:22:58.413Z,98598.30
2019-03-15T15:25:28.759Z,98603.89
2019-03-15T15:28:04.458Z,98616.28
2019-03-15T15:30:31.547Z,98608.69
2019-03-15T15:33:01.985Z,98604.66
2019-03-15T15:35:32.287Z,98627.56
2019-03-15T15:38:04.558Z,98600.90
2019-03-15T15:40:35.978Z,98608.34
2019-03-15T15:43:06.419Z,98616.16
2019-03-15T15:45:36.857Z,98625.55
2019-03-15T15:48:07.187Z,98622.55
2019-03-15T15:50:37.921Z,98558.58
2019-03-15T15:53:10.941Z,98605.60
2019-03-15T15:55:41.227Z,98616.16
2019-03-15T15:58:17.883Z,98607.31
2019-03-15T16:00:43.491Z,98605.19
2019-03-15T16:03:13.753Z,98592.00
2019-03-15T16:05:43.960Z,98606.05
2019-03-15T16:08:14.697Z,98612.20
2019-03-15T16:10:45.258Z,98611.86
2019-03-15T16:13:17.603Z,98591.92
2019-03-15T16:15:47.395Z,98585.28
2019-03-15T16:18:17.797Z,98610.88
2019-03-15T16:20:48.035Z,98610.53
2019-03-15T16:23:18.283Z,98612.20
2019-03-15T16:25:49.267Z,98617.81
2019-03-15T16:28:30.876Z,98624.31
2019-03-15T16:30:51.436Z,98620.63
2019-03-15T16:33:22.415Z,98604.53
2019-03-15T16:35:52.691Z,98638.09
2019-03-15T16:38:23.305Z,98642.72
2019-03-15T16:40:54.675Z,98648.33
2019-03-15T16:43:29.195Z,98641.84
2019-03-15T16:46:02.303Z,98618.97
2019-03-15T16:48:36.242Z,98637.23
2019-03-15T16:51:19.001Z,98641.63
2019-03-15T16:53:38.786Z,98665.68
2019-03-15T16:56:10.655Z,98657.66
2019-03-15T16:58:45.708Z,98666.03
2019-03-15T17:01:13.082Z,98643.89
2019-03-15T17:03:43.326Z,98669.67
2019-03-15T17:06:13.807Z,98691.91
2019-03-15T17:08:44.111Z,98683.59
2019-03-15T17:11:14.948Z,98693.38
2019-03-15T17:13:45.590Z,98709.17
2019-03-15T17:16:15.896Z,98693.88
2019-03-15T17:18:46.314Z,98672.28
2019-03-15T17:21:17.157Z,98709.66
2019-03-15T17:23:48.052Z,98706.66
2019-03-15T17:26:18.542Z,98696.66
2019-03-15T17:28:58.581Z,98696.66
2019-03-15T17:31:21.695Z,98728.81
2019-03-15T17:33:52.132Z,98701.42
2019-03-15T17:36:23.579Z,98720.50
2019-03-15T17:38:54.065Z,98690.45
2019-03-15T17:41:24.810Z,98729.70
2019-03-15T17:43:57.209Z,98750.11
2019-03-15T17:46:27.620Z,98747.10
2019-03-15T17:48:58.203Z,98749.20
2019-03-15T17:51:29.103Z,98748.22
2019-03-15T17:53:59.469Z,98753.44
2019-03-15T17:56:29.931Z,98762.03
2019-03-15T17:59:11.930Z,98757.35
2019-03-15T18:01:33.626Z,98778.52
2019-03-15T18:04:05.885Z,98768.39
2019-03-15T18:06:37.283Z,98790.22
2019-03-15T18:09:08.975Z,98789.87
2019-03-15T18:11:43.032Z,98767.45
2019-03-15T18:14:18.711Z,98797.34
2019-03-15T18:16:52.373Z,98772.97
2019-03-15T18:19:23.550Z,98793.23
2019-03-15T18:24:53.141Z,98831.23
2019-03-15T18:27:23.568Z,98846.23
2019-03-15T18:29:53.847Z,98856.42
2019-03-15T18:32:24.421Z,98861.16
2019-03-15T18:34:55.117Z,98853.91
2019-03-15T18:37:25.765Z,98867.58
2019-03-15T18:39:56.144Z,98869.26
2019-03-15T18:42:26.518Z,98855.43
2019-03-15T18:44:57.219Z,98878.90
2019-03-15T18:47:27.921Z,98878.90
2019-03-15T18:49:59.254Z,98870.22
2019-03-15T18:52:31.798Z,98881.30
2019-03-15T18:56:08.993Z,98887.70
2019-03-15T18:58:40.094Z,98890.80
2019-03-15T19:01:10.382Z,98905.38
2019-03-15T19:03:40.904Z,98895.39
2019-03-15T19:06:11.330Z,98902.37
2019-03-15T19:08:41.760Z,98907.66
2019-03-15T19:11:12.239Z,98925.85
2019-03-15T19:13:43.868Z,98921.63
2019-03-15T19:16:26.536Z,98927.89
2019-03-15T19:18:56.663Z,98936.22
2019-03-15T19:21:27.553Z,98947.52
2019-03-15T19:23:57.896Z,98941.72
2019-03-15T19:26:29.093Z,98946.52
2019-03-15T19:28:59.704Z,98956.04
2019-03-15T19:31:30.233Z,98954.36
2019-03-15T19:34:01.287Z,98966.28
2019-03-15T19:36:31.839Z,98967.59
2019-03-15T19:39:04.279Z,98983.59
2019-03-15T19:41:35.603Z,98978.30
2019-03-15T19:44:07.067Z,98979.64
2019-03-15T19:46:37.710Z,98988.20
2019-03-15T19:49:09.874Z,98995.55
2019-03-15T19:51:41.557Z,99015.31
2019-03-15T19:54:11.974Z,99018.68
2019-03-15T19:56:42.674Z,99025.17
2019-03-15T19:59:14.866Z,99019.88
2019-03-15T20:01:45.317Z,99027.22
2019-03-15T20:04:16.730Z,99044.19
2019-03-15T20:06:49.835Z,99044.94
2019-03-15T20:09:20.223Z,99044.44
2019-03-15T20:11:51.271Z,99045.15
2019-03-15T20:14:21.724Z,99047.22
2019-03-15T20:16:52.726Z,99039.63
2019-03-15T20:19:23.679Z,99060.22
2019-03-15T20:21:54.584Z,99071.78
2019-03-15T20:24:25.470Z,99062.85
2019-03-15T20:26:56.237Z,99071.17
2019-03-15T20:29:26.614Z,99073.83
2019-03-15T20:31:57.103Z,99077.08
2019-03-15T20:34:27.715Z,99076.72
2019-03-15T20:36:58.953Z,99081.53
2019-03-15T20:39:29.783Z,99105.25
2019-03-15T20:42:00.740Z,99090.81
2019-03-15T20:44:31.384Z,99098.39
2019-03-15T20:47:01.907Z,99104.14
2019-03-15T20:49:36.227Z,99105.11
2019-03-15T20:52:05.583Z,99121.12
2019-03-15T20:54:36.036Z,99116.31
2019-03-15T20:57:06.841Z,99118.12
2019-03-15T20:59:38.706Z,99130.03
2019-03-15T21:02:09.047Z,99124.50
2019-03-15T21:04:39.474Z,99140.64
2019-03-15T21:07:12.102Z,99134.59
2019-03-15T21:09:43.768Z,99136.52
2019-03-15T21:12:14.093Z,99147.59
2019-03-15T21:14:44.913Z,99163.20
2019-03-15T21:17:15.359Z,99165.34
2019-03-15T21:19:45.828Z,99161.61
2019-03-15T21:22:16.337Z,99180.75
2019-03-15T21:24:46.721Z,99184.72
2019-03-15T21:27:16.888Z,99181.47
2019-03-15T21:29:47.207Z,99195.80
2019-03-15T21:32:17.882Z,99215.70
2019-03-15T21:34:48.576Z,99206.75
2019-03-15T21:37:19.307Z,99195.11
2019-03-15T21:39:49.766Z,99214.66
2019-03-15T21:42:20.019Z,99214.48
2019-03-15T21:44:50.350Z,99210.94
2019-03-15T21:47:20.998Z,99214.30
2019-03-15T21:49:51.458Z,99239.80
2019-03-15T21:52:21.667Z,99227.41
2019-03-15T21:54:52.098Z,99251.11
2019-03-15T21:57:22.300Z,99250.14
2019-03-15T21:59:52.749Z,99246.17
2019-03-15T22:02:22.964Z,99265.23
2019-03-15T22:04:53.862Z,99280.03
2019-03-15T22:07:24.154Z,99270.06
2019-03-15T22:09:55.391Z,99264.09
2019-03-15T22:12:25.605Z,99266.76
2019-03-15T22:14:57.307Z,99277.59
2019-03-15T22:17:27.544Z,99284.26
2019-03-15T22:19:58.453Z,99278.61
2019-03-15T22:22:29.986Z,99296.12
2019-03-15T22:25:00.555Z,99304.84
2019-03-15T22:27:30.686Z,99296.42
2019-03-15T22:30:01.169Z,99290.45
2019-03-15T22:32:31.356Z,99286.16
2019-03-15T22:35:01.492Z,99294.39
2019-03-15T22:37:32.204Z,99256.95
2019-03-15T22:40:02.647Z,99285.76
2019-03-15T22:42:33.477Z,99341.52
2019-03-15T22:45:05.861Z,99325.13
2019-03-15T22:47:36.598Z,99346.17
2019-03-15T22:50:07.055Z,99360.72
2019-03-15T22:52:37.422Z,99334.05
2019-03-15T22:55:08.323Z,99359.53
2019-03-15T22:57:38.769Z,99359.95
2019-03-15T23:00:11.961Z,99361.27
2019-03-15T23:02:42.926Z,99359.08
2019-03-15T23:05:13.220Z,99373.80
2019-03-15T23:07:43.481Z,99362.00
2019-03-15T23:10:14.430Z,99356.97
2019-03-15T23:12:44.680Z,99363.05
2019-03-15T23:15:15.682Z,99371.07
2019-03-15T23:17:45.944Z,99371.20
2019-03-15T23:20:16.436Z,99381.56
2019-03-15T23:22:47.169Z,99384.02
2019-03-15T23:25:17.679Z,99375.67
2019-03-15T23:27:48.424Z,99410.88
2019-03-15T23:30:18.959Z,99411.97
2019-03-15T23:32:49.464Z,99406.91
2019-03-15T23:35:20.024Z,99403.19
2019-03-15T23:37:50.373Z,99409.61
2019-03-15T23:40:20.843Z,99418.89
2019-03-15T23:42:51.508Z,99429.69
2019-03-15T23:45:22.112Z,99399.81
2019-03-15T23:47:52.488Z,99424.25
2019-03-15T23:50:23.441Z,99424.00
2019-03-15T23:52:54.225Z,99431.90
2019-03-15T23:55:25.682Z,99429.37
2019-03-15T23:57:55.940Z,99439.34
